createdAt,value
2017-12-19T00:01:52.415Z,14.75
2017-12-19T00:04:19.011Z,15.38
2017-12-19T00:06:45.261Z,17.25
2017-12-19T00:09:11.489Z,15.75
2017-12-19T00:11:37.734Z,16.05
2017-12-19T00:14:04.331Z,16.15
2017-12-19T00:16:31.204Z,17.17
2017-12-19T00:18:57.426Z,17.73
2017-12-19T00:21:23.678Z,17.77
2017-12-19T00:23:50.345Z,16.52
2017-12-19T00:26:16.641Z,15.95
2017-12-19T00:28:43.227Z,16.80
2017-12-19T00:31:09.476Z,15.68
2017-12-19T00:33:35.723Z,18.70
2017-12-19T00:36:02.353Z,16.48
2017-12-19T00:38:28.629Z,17.62
2017-12-19T00:40:54.862Z,17.23
2017-12-19T00:43:21.096Z,17.95
2017-12-19T00:45:47.350Z,18.40
2017-12-19T00:48:13.578Z,18.58
2017-12-19T00:50:39.808Z,19.92
2017-12-19T00:53:06.064Z,18.62
2017-12-19T00:55:32.300Z,21.08
2017-12-19T00:57:58.554Z,17.62
2017-12-19T01:00:24.732Z,19.75
2017-12-19T01:02:51.021Z,22.35
2017-12-19T01:05:17.313Z,24.73
2017-12-19T01:07:44.559Z,24.70
2017-12-19T01:10:11.180Z,24.92
2017-12-19T01:12:37.398Z,23.20
2017-12-19T01:15:04.876Z,23.83
2017-12-19T01:17:31.487Z,25.08
2017-12-19T01:19:57.705Z,23.58
2017-12-19T01:22:23.952Z,26.12
2017-12-19T01:24:50.189Z,24.40
2017-12-19T01:27:16.412Z,27.37
2017-12-19T01:29:42.612Z,23.00
2017-12-19T01:32:08.846Z,22.42
2017-12-19T01:34:35.075Z,24.80
2017-12-19T01:37:01.313Z,24.20
2017-12-19T01:39:27.532Z,24.37
2017-12-19T01:41:53.766Z,28.35
2017-12-19T01:44:20.400Z,25.70
2017-12-19T01:46:46.620Z,24.60
2017-12-19T01:49:12.827Z,27.70
2017-12-19T01:51:39.118Z,25.77
2017-12-19T01:54:05.730Z,25.88
2017-12-19T01:56:31.943Z,24.15
2017-12-19T01:58:58.153Z,28.48
2017-12-19T02:01:24.379Z,26.75
2017-12-19T02:03:50.611Z,26.58
2017-12-19T02:06:16.847Z,23.98
2017-12-19T02:08:43.093Z,28.75
2017-12-19T02:11:09.336Z,27.65
2017-12-19T02:13:35.551Z,26.75
2017-12-19T02:16:02.736Z,30.52
2017-12-19T02:18:29.009Z,27.40
2017-12-19T02:20:55.269Z,28.27
2017-12-19T02:23:21.529Z,28.27
2017-12-19T02:25:47.794Z,29.85
2017-12-19T02:28:14.029Z,31.80
2017-12-19T02:30:41.177Z,33.30
2017-12-19T02:33:07.435Z,33.50
2017-12-19T02:35:33.700Z,35.90
2017-12-19T02:38:00.069Z,27.73
2017-12-19T02:40:26.377Z,34.25
2017-12-19T02:45:50.430Z,33.60
2017-12-19T02:48:16.667Z,33.65
2017-12-19T02:50:42.917Z,27.80
2017-12-19T02:53:09.156Z,28.95
2017-12-19T02:55:35.416Z,33.28
2017-12-19T02:58:03.029Z,30.15
2017-12-19T03:00:30.087Z,31.73
2017-12-19T03:02:56.346Z,31.30
2017-12-19T03:05:22.602Z,32.25
2017-12-19T03:07:48.847Z,29.98
2017-12-19T03:10:15.466Z,31.77
2017-12-19T03:12:41.762Z,34.78
2017-12-19T03:15:08.009Z,30.90
2017-12-19T03:17:34.235Z,33.13
2017-12-19T03:20:00.496Z,33.05
2017-12-19T03:22:27.212Z,31.92
2017-12-19T03:24:53.936Z,30.50
2017-12-19T03:27:20.645Z,29.85
2017-12-19T03:29:46.954Z,31.25
2017-12-19T03:32:13.565Z,31.75
2017-12-19T03:34:39.805Z,31.37
2017-12-19T03:37:08.534Z,32.47
2017-12-19T03:39:34.811Z,29.37
2017-12-19T03:42:01.087Z,31.15
2017-12-19T03:44:27.332Z,31.20
2017-12-19T03:46:53.580Z,32.00
2017-12-19T03:49:20.121Z,31.48
2017-12-19T03:51:46.367Z,30.30
2017-12-19T03:54:12.589Z,30.45
2017-12-19T03:56:38.832Z,30.88
2017-12-19T03:59:05.110Z,26.50
2017-12-19T04:01:31.369Z,28.52
2017-12-19T04:03:57.617Z,30.25
2017-12-19T04:06:24.229Z,29.10
2017-12-19T04:08:50.484Z,33.75
2017-12-19T04:11:17.102Z,33.45
2017-12-19T04:13:43.367Z,30.90
2017-12-19T04:16:09.602Z,29.83
2017-12-19T04:18:35.846Z,29.45
2017-12-19T04:21:02.100Z,30.75
2017-12-19T04:23:28.358Z,28.55
2017-12-19T04:25:54.620Z,28.50
2017-12-19T04:28:20.877Z,33.75
2017-12-19T04:30:47.146Z,29.12
2017-12-19T04:33:13.765Z,30.15
2017-12-19T04:35:40.014Z,28.48
2017-12-19T04:38:07.035Z,26.75
2017-12-19T04:40:33.272Z,28.50
2017-12-19T04:43:00.140Z,30.85
2017-12-19T04:45:27.726Z,28.75
2017-12-19T04:47:53.964Z,29.85
2017-12-19T04:50:20.204Z,28.73
2017-12-19T04:52:46.462Z,30.55
2017-12-19T04:55:12.709Z,32.25
2017-12-19T04:57:39.324Z,29.80
2017-12-19T05:00:05.592Z,28.05
2017-12-19T05:02:31.833Z,30.15
2017-12-19T05:04:58.052Z,30.70
2017-12-19T05:07:24.351Z,31.48
2017-12-19T05:09:50.978Z,29.30
2017-12-19T05:12:17.252Z,30.35
2017-12-19T05:14:43.485Z,32.17
2017-12-19T05:17:09.759Z,33.80
2017-12-19T05:19:36.014Z,36.17
2017-12-19T05:22:02.676Z,34.92
2017-12-19T05:24:28.906Z,34.15
2017-12-19T05:26:55.139Z,34.42
2017-12-19T05:29:21.400Z,31.45
2017-12-19T05:31:47.653Z,31.42
2017-12-19T05:34:13.889Z,29.08
2017-12-19T05:36:40.490Z,38.45
2017-12-19T05:39:06.750Z,36.45
2017-12-19T05:41:32.974Z,32.80
2017-12-19T05:43:59.210Z,29.12
2017-12-19T05:46:25.482Z,31.65
2017-12-19T05:48:51.734Z,30.98
2017-12-19T05:51:18.015Z,32.30
2017-12-19T05:53:44.297Z,27.67
2017-12-19T05:56:10.545Z,28.58
2017-12-19T05:58:36.822Z,28.95
2017-12-19T06:01:03.098Z,32.53
2017-12-19T06:03:29.369Z,31.95
2017-12-19T06:05:55.630Z,35.42
2017-12-19T06:08:21.901Z,34.95
2017-12-19T06:10:48.134Z,31.95
2017-12-19T06:13:14.391Z,31.42
2017-12-19T06:15:40.657Z,33.83
2017-12-19T06:18:07.831Z,33.05
2017-12-19T06:20:34.479Z,31.42
2017-12-19T06:23:00.743Z,30.88
2017-12-19T06:25:27.009Z,30.50
2017-12-19T06:27:53.250Z,32.20
2017-12-19T06:30:19.892Z,33.03
2017-12-19T06:32:46.508Z,30.12
2017-12-19T06:35:12.764Z,30.88
2017-12-19T06:37:39.391Z,27.83
2017-12-19T06:40:06.003Z,28.83
2017-12-19T06:42:32.241Z,34.90
2017-12-19T06:44:58.476Z,35.42
2017-12-19T06:47:24.766Z,34.90
2017-12-19T06:49:51.056Z,38.45
2017-12-19T06:52:17.347Z,34.10
2017-12-19T06:54:43.611Z,34.20
2017-12-19T06:57:10.226Z,35.42
2017-12-19T06:59:36.504Z,34.38
2017-12-19T07:02:02.756Z,42.97
2017-12-19T07:04:29.599Z,36.38
2017-12-19T07:06:55.847Z,39.20
2017-12-19T07:09:22.136Z,37.70
2017-12-19T07:11:48.386Z,36.28
2017-12-19T07:14:14.697Z,31.15
2017-12-19T07:16:41.731Z,33.45
2017-12-19T07:19:07.969Z,35.15
2017-12-19T07:21:34.225Z,32.30
2017-12-19T07:24:00.472Z,38.67
2017-12-19T07:26:26.987Z,36.03
2017-12-19T07:28:53.220Z,38.15
2017-12-19T07:31:19.691Z,38.63
2017-12-19T07:33:46.361Z,40.40
2017-12-19T07:36:12.617Z,40.58
2017-12-19T07:38:38.871Z,42.00
2017-12-19T07:41:05.146Z,39.55
2017-12-19T07:43:32.024Z,40.67
2017-12-19T07:45:58.284Z,37.13
2017-12-19T07:48:24.899Z,40.17
2017-12-19T07:50:51.117Z,37.70
2017-12-19T07:53:17.494Z,36.78
2017-12-19T07:55:43.779Z,35.72
2017-12-19T07:58:10.011Z,33.50
2017-12-19T08:00:36.236Z,42.08
2017-12-19T08:03:02.504Z,38.50
2017-12-19T08:05:28.743Z,40.03
2017-12-19T08:07:55.046Z,41.85
2017-12-19T08:10:21.296Z,38.08
2017-12-19T08:12:47.540Z,43.75
2017-12-19T08:15:14.744Z,40.67
2017-12-19T08:17:41.073Z,42.60
2017-12-19T08:20:07.317Z,43.40
2017-12-19T08:22:33.554Z,38.75
2017-12-19T08:24:59.814Z,37.63
2017-12-19T08:27:26.041Z,39.63
2017-12-19T08:29:52.385Z,39.78
2017-12-19T08:32:18.605Z,41.88
2017-12-19T08:34:44.870Z,42.92
2017-12-19T08:37:11.085Z,39.10
2017-12-19T08:39:37.305Z,40.85
2017-12-19T08:42:03.518Z,39.15
2017-12-19T08:44:29.738Z,40.80
2017-12-19T08:46:55.965Z,40.33
2017-12-19T08:49:22.224Z,41.85
2017-12-19T08:51:48.437Z,35.40
2017-12-19T08:54:14.698Z,40.10
2017-12-19T08:56:40.894Z,40.42
2017-12-19T08:59:07.125Z,41.17
2017-12-19T09:01:33.327Z,43.33
2017-12-19T09:03:59.545Z,40.78
2017-12-19T09:06:25.765Z,40.55
2017-12-19T09:08:52.012Z,40.65
2017-12-19T09:11:18.227Z,37.40
2017-12-19T09:13:44.442Z,40.92
2017-12-19T09:16:10.672Z,40.53
2017-12-19T09:18:37.249Z,42.88
2017-12-19T09:21:03.456Z,41.97
2017-12-19T09:23:29.683Z,42.15
2017-12-19T09:25:55.909Z,42.38
2017-12-19T09:28:22.124Z,42.42
2017-12-19T09:30:48.324Z,38.42
2017-12-19T09:33:14.553Z,42.03
2017-12-19T09:35:40.771Z,40.38
2017-12-19T09:38:06.993Z,42.03
2017-12-19T09:40:33.215Z,40.40
2017-12-19T09:42:59.453Z,41.90
2017-12-19T09:45:25.697Z,43.78
2017-12-19T09:47:51.928Z,41.15
2017-12-19T09:50:18.132Z,42.55
2017-12-19T09:52:44.351Z,43.65
2017-12-19T09:55:10.591Z,41.88
2017-12-19T09:57:36.844Z,42.28
2017-12-19T10:00:03.470Z,39.30
2017-12-19T10:02:29.674Z,45.38
2017-12-19T10:04:55.917Z,40.35
2017-12-19T10:07:22.113Z,42.60
2017-12-19T10:09:48.335Z,44.00
2017-12-19T10:12:14.566Z,54.17
2017-12-19T10:14:40.782Z,40.63
2017-12-19T10:17:07.367Z,44.53
2017-12-19T10:19:34.222Z,45.12
2017-12-19T10:22:00.500Z,42.88
2017-12-19T10:24:26.804Z,44.33
2017-12-19T10:26:53.050Z,43.05
2017-12-19T10:29:19.296Z,41.40
2017-12-19T10:31:45.554Z,41.70
2017-12-19T10:34:11.809Z,40.58
2017-12-19T10:36:38.021Z,42.80
2017-12-19T10:39:04.629Z,41.37
2017-12-19T10:41:30.849Z,42.20
2017-12-19T10:43:57.117Z,45.40
2017-12-19T10:46:23.694Z,39.22
2017-12-19T10:48:49.945Z,45.58
2017-12-19T10:51:16.233Z,43.22
2017-12-19T10:53:42.469Z,39.20
2017-12-19T10:56:08.714Z,39.35
2017-12-19T10:58:34.945Z,50.28
2017-12-19T11:01:01.189Z,40.35
2017-12-19T11:03:27.428Z,43.10
2017-12-19T11:05:53.630Z,48.95
2017-12-19T11:08:19.883Z,41.28
2017-12-19T11:10:46.096Z,42.50
2017-12-19T11:13:12.335Z,42.03
2017-12-19T11:15:39.345Z,42.53
2017-12-19T11:18:05.598Z,45.67
2017-12-19T11:20:31.883Z,39.47
2017-12-19T11:22:58.247Z,40.88
2017-12-19T11:25:24.543Z,41.30
2017-12-19T11:27:50.971Z,40.78
2017-12-19T11:30:17.688Z,39.00
2017-12-19T11:32:44.211Z,41.33
2017-12-19T11:35:10.454Z,41.00
2017-12-19T11:37:37.693Z,40.15
2017-12-19T11:40:03.957Z,42.88
2017-12-19T11:42:30.170Z,38.85
2017-12-19T11:44:56.787Z,42.08
2017-12-19T11:47:23.098Z,37.05
2017-12-19T11:49:49.324Z,41.20
2017-12-19T11:52:15.658Z,38.35
2017-12-19T11:54:41.915Z,34.15
2017-12-19T11:57:08.201Z,41.78
2017-12-19T11:59:34.458Z,34.63
2017-12-19T12:02:00.731Z,37.80
2017-12-19T12:04:26.999Z,37.90
2017-12-19T12:06:53.208Z,43.10
2017-12-19T12:09:19.459Z,34.38
2017-12-19T12:11:45.694Z,37.97
2017-12-19T12:14:11.954Z,38.67
2017-12-19T12:16:38.570Z,33.35
2017-12-19T12:19:04.796Z,37.05
2017-12-19T12:21:31.082Z,36.40
2017-12-19T12:23:57.311Z,40.15
2017-12-19T12:26:23.546Z,36.35
2017-12-19T12:28:50.113Z,37.63
2017-12-19T12:31:16.356Z,41.47
2017-12-19T12:33:42.597Z,42.85
2017-12-19T12:36:09.509Z,40.55
2017-12-19T12:38:36.601Z,43.47
2017-12-19T12:41:02.879Z,35.38
2017-12-19T12:43:29.120Z,39.92
2017-12-19T12:45:55.366Z,31.12
2017-12-19T12:48:21.980Z,35.22
2017-12-19T12:50:48.708Z,36.05
2017-12-19T12:53:15.289Z,36.13
2017-12-19T12:55:41.883Z,36.63
2017-12-19T12:58:08.104Z,30.17
2017-12-19T13:00:34.392Z,32.08
2017-12-19T13:03:00.650Z,33.83
2017-12-19T13:05:27.521Z,32.78
2017-12-19T13:07:53.744Z,34.75
2017-12-19T13:10:20.025Z,30.62
2017-12-19T13:12:46.308Z,32.83
2017-12-19T13:15:14.397Z,31.50
2017-12-19T13:17:40.617Z,35.60
2017-12-19T13:20:06.849Z,33.45
2017-12-19T13:22:33.202Z,36.95
2017-12-19T13:25:00.577Z,36.13
2017-12-19T13:27:26.837Z,30.73
2017-12-19T13:29:54.010Z,35.63
2017-12-19T13:32:20.228Z,35.20
2017-12-19T13:34:46.467Z,38.00
2017-12-19T13:37:12.672Z,36.22
2017-12-19T13:39:38.938Z,28.73
2017-12-19T13:42:05.565Z,26.12
2017-12-19T13:44:31.794Z,29.60
2017-12-19T13:46:58.007Z,25.52
2017-12-19T13:49:24.250Z,22.30
2017-12-19T13:51:50.475Z,25.62
2017-12-19T13:54:16.711Z,22.90
2017-12-19T13:56:43.338Z,22.05
2017-12-19T13:59:09.632Z,25.42
2017-12-19T14:01:35.878Z,22.20
2017-12-19T14:04:02.171Z,23.95
2017-12-19T14:06:29.244Z,23.55
2017-12-19T14:08:56.481Z,22.55
2017-12-19T14:11:22.711Z,24.10
2017-12-19T14:13:48.983Z,26.55
2017-12-19T14:16:15.207Z,24.10
2017-12-19T14:18:41.437Z,27.70
2017-12-19T14:21:07.686Z,21.00
2017-12-19T14:23:34.354Z,24.98
2017-12-19T14:26:00.631Z,24.37
2017-12-19T14:28:26.863Z,28.45
2017-12-19T14:30:53.492Z,23.90
2017-12-19T14:33:19.733Z,26.25
2017-12-19T14:35:46.017Z,24.77
2017-12-19T14:38:12.263Z,25.55
2017-12-19T14:40:38.483Z,26.20
2017-12-19T14:43:04.743Z,25.50
2017-12-19T14:45:31.973Z,22.90
2017-12-19T14:47:58.235Z,24.05
2017-12-19T14:50:24.827Z,22.83
2017-12-19T14:52:51.100Z,21.42
2017-12-19T14:55:18.159Z,21.65
2017-12-19T14:57:44.783Z,21.40
2017-12-19T15:00:12.028Z,20.77
2017-12-19T15:02:38.277Z,19.80
2017-12-19T15:05:05.184Z,19.85
2017-12-19T15:07:31.445Z,17.67
2017-12-19T15:09:58.156Z,20.20
2017-12-19T15:12:24.409Z,16.50
2017-12-19T15:14:50.703Z,19.58
2017-12-19T15:17:17.020Z,16.60
2017-12-19T15:19:43.247Z,20.75
2017-12-19T15:22:09.468Z,18.17
2017-12-19T15:24:35.709Z,19.05
2017-12-19T15:27:02.050Z,16.08
2017-12-19T15:29:28.709Z,15.55
2017-12-19T15:31:54.933Z,17.52
2017-12-19T15:34:21.149Z,15.95
2017-12-19T15:36:47.416Z,15.27
2017-12-19T15:39:14.013Z,20.12
2017-12-19T15:41:40.260Z,15.20
2017-12-19T15:44:06.536Z,15.23
2017-12-19T15:46:33.535Z,16.60
2017-12-19T15:49:00.612Z,14.32
2017-12-19T15:51:26.925Z,12.27
2017-12-19T15:53:53.181Z,11.93
2017-12-19T15:56:19.404Z,14.43
2017-12-19T15:58:45.647Z,13.23
2017-12-19T16:01:11.865Z,13.20
2017-12-19T16:03:38.671Z,14.65
2017-12-19T16:06:04.929Z,12.05
2017-12-19T16:08:31.190Z,10.25
2017-12-19T16:10:57.478Z,12.48
2017-12-19T16:13:24.079Z,11.63
2017-12-19T16:15:50.400Z,14.30
2017-12-19T16:18:16.621Z,18.20
2017-12-19T16:20:42.894Z,13.62
2017-12-19T16:23:09.481Z,14.55
2017-12-19T16:25:36.622Z,13.27
2017-12-19T16:28:02.868Z,13.77
2017-12-19T16:30:30.499Z,11.02
2017-12-19T16:32:56.771Z,8.95
2017-12-19T16:35:23.200Z,8.57
2017-12-19T16:37:50.044Z,7.82
2017-12-19T16:40:16.281Z,8.30
2017-12-19T16:42:42.484Z,7.32
2017-12-19T16:45:08.987Z,7.20
2017-12-19T16:47:35.237Z,8.05
2017-12-19T16:50:01.486Z,8.55
2017-12-19T16:52:27.732Z,8.65
2017-12-19T16:54:54.010Z,9.18
2017-12-19T16:57:20.309Z,12.10
2017-12-19T16:59:46.949Z,11.55
2017-12-19T17:02:13.560Z,11.00
2017-12-19T17:04:39.783Z,11.02
2017-12-19T17:07:06.025Z,11.27
2017-12-19T17:09:32.364Z,11.85
2017-12-19T17:11:59.126Z,9.68
2017-12-19T17:14:25.374Z,10.15
2017-12-19T17:16:51.659Z,11.93
2017-12-19T17:19:18.288Z,10.18
2017-12-19T17:21:44.540Z,9.30
2017-12-19T17:24:11.219Z,12.00
2017-12-19T17:26:37.541Z,13.40
2017-12-19T17:29:03.829Z,10.75
2017-12-19T17:31:30.696Z,10.88
2017-12-19T17:33:56.969Z,10.13
2017-12-19T17:36:23.229Z,9.63
2017-12-19T17:38:49.926Z,10.05
2017-12-19T17:41:16.226Z,10.57
2017-12-19T17:43:43.006Z,10.25
2017-12-19T17:46:09.530Z,10.85
2017-12-19T17:48:35.829Z,10.95
2017-12-19T17:51:02.114Z,11.85
2017-12-19T17:53:28.439Z,10.60
2017-12-19T17:55:54.721Z,11.60
2017-12-19T17:58:20.988Z,16.83
2017-12-19T18:00:47.246Z,12.65
2017-12-19T18:03:14.749Z,13.23
2017-12-19T18:05:41.017Z,11.23
2017-12-19T18:08:07.292Z,14.02
2017-12-19T18:10:33.599Z,13.65
2017-12-19T18:13:00.273Z,15.32
2017-12-19T18:15:26.622Z,16.00
2017-12-19T18:17:52.916Z,16.02
2017-12-19T18:20:19.198Z,17.70
2017-12-19T18:22:45.879Z,14.50
2017-12-19T18:25:12.207Z,12.02
2017-12-19T18:27:38.525Z,12.98
2017-12-19T18:30:05.185Z,13.40
2017-12-19T18:32:31.451Z,13.10
2017-12-19T18:34:57.730Z,12.73
2017-12-19T18:37:24.028Z,15.68
2017-12-19T18:39:50.292Z,13.20
2017-12-19T18:42:16.558Z,13.57
2017-12-19T18:44:42.849Z,12.75
2017-12-19T18:47:09.121Z,16.70
2017-12-19T18:49:36.443Z,13.77
2017-12-19T18:52:02.749Z,14.43
2017-12-19T18:54:29.068Z,13.30
2017-12-19T18:56:55.348Z,14.20
2017-12-19T18:59:21.609Z,16.95
2017-12-19T19:01:47.873Z,13.30
2017-12-19T19:04:14.492Z,15.65
2017-12-19T19:06:40.841Z,12.15
2017-12-19T19:09:07.559Z,14.77
2017-12-19T19:11:33.929Z,11.40
2017-12-19T19:14:00.224Z,12.88
2017-12-19T19:16:26.877Z,12.98
2017-12-19T19:18:53.843Z,11.93
2017-12-19T19:21:20.484Z,12.30
2017-12-19T19:23:47.084Z,13.93
2017-12-19T19:26:13.797Z,14.35
2017-12-19T19:28:40.812Z,11.57
2017-12-19T19:31:07.127Z,13.88
2017-12-19T19:33:33.445Z,13.65
2017-12-19T19:35:59.771Z,14.52
2017-12-19T19:38:27.225Z,13.88
2017-12-19T19:40:55.687Z,13.77
2017-12-19T19:43:21.990Z,15.55
2017-12-19T19:45:48.365Z,17.20
2017-12-19T19:48:15.058Z,17.77
2017-12-19T19:50:41.335Z,16.90
2017-12-19T19:53:08.093Z,16.73
2017-12-19T19:55:34.447Z,16.95
2017-12-19T19:58:00.784Z,20.00
2017-12-19T20:00:27.107Z,16.73
2017-12-19T20:02:53.482Z,14.35
2017-12-19T20:05:19.808Z,14.57
2017-12-19T20:07:46.130Z,15.63
2017-12-19T20:10:12.499Z,14.52
2017-12-19T20:12:39.193Z,15.70
2017-12-19T20:15:06.133Z,14.05
2017-12-19T20:17:33.305Z,14.00
2017-12-19T20:19:59.724Z,15.57
2017-12-19T20:22:25.994Z,15.10
2017-12-19T20:24:54.313Z,13.30
2017-12-19T20:27:21.015Z,14.27
2017-12-19T20:29:47.696Z,17.75
2017-12-19T20:32:14.004Z,14.77
2017-12-19T20:34:41.234Z,17.23
2017-12-19T20:37:08.404Z,16.50
2017-12-19T20:39:35.217Z,16.12
2017-12-19T20:42:02.436Z,15.20
2017-12-19T20:44:30.008Z,15.52
2017-12-19T20:46:58.099Z,13.23
2017-12-19T20:49:24.847Z,18.55
2017-12-19T20:51:52.674Z,16.67
2017-12-19T20:54:19.838Z,15.48
2017-12-19T20:56:46.531Z,20.08
2017-12-19T20:59:13.128Z,16.00
2017-12-19T21:01:40.390Z,18.48
2017-12-19T21:04:06.696Z,16.85
2017-12-19T21:06:33.007Z,17.48
2017-12-19T21:08:59.322Z,17.30
2017-12-19T21:11:25.615Z,20.52
2017-12-19T21:13:51.911Z,19.62
2017-12-19T21:16:18.221Z,18.90
2017-12-19T21:18:44.572Z,17.65
2017-12-19T21:21:11.649Z,21.92
2017-12-19T21:23:38.016Z,20.80
2017-12-19T21:26:05.433Z,19.15
2017-12-19T21:28:31.733Z,17.98
2017-12-19T21:30:58.963Z,18.05
2017-12-19T21:33:25.358Z,18.75
2017-12-19T21:35:51.646Z,20.12
2017-12-19T21:38:17.944Z,17.00
2017-12-19T21:40:44.182Z,17.75
2017-12-19T21:43:10.839Z,20.42
2017-12-19T21:45:37.118Z,19.20
2017-12-19T21:48:03.390Z,19.98
2017-12-19T21:50:29.654Z,17.98
2017-12-19T21:52:56.283Z,19.87
2017-12-19T21:55:22.884Z,18.95
2017-12-19T21:57:49.128Z,19.08
2017-12-19T22:00:15.430Z,20.90
2017-12-19T22:02:44.046Z,21.80
2017-12-19T22:05:11.166Z,20.92
2017-12-19T22:07:37.401Z,19.70
2017-12-19T22:10:03.658Z,19.12
2017-12-19T22:12:30.011Z,19.95
2017-12-19T22:14:59.780Z,20.90
2017-12-19T22:17:26.084Z,20.15
2017-12-19T22:19:52.415Z,24.73
2017-12-19T22:22:18.715Z,23.73
2017-12-19T22:24:44.982Z,24.37
2017-12-19T22:27:11.234Z,22.98
2017-12-19T22:29:38.524Z,21.48
2017-12-19T22:32:05.124Z,22.50
2017-12-19T22:34:31.443Z,18.42
2017-12-19T22:36:57.658Z,19.25
2017-12-19T22:39:23.925Z,21.35
2017-12-19T22:41:50.164Z,20.50
2017-12-19T22:44:16.445Z,22.20
2017-12-19T22:46:42.683Z,22.33
2017-12-19T22:49:08.926Z,22.92
2017-12-19T22:51:35.205Z,23.62
2017-12-19T22:54:01.425Z,23.62
2017-12-19T22:56:27.652Z,27.45
2017-12-19T22:58:53.894Z,24.75
2017-12-19T23:01:20.142Z,24.65
2017-12-19T23:03:46.349Z,25.60
2017-12-19T23:06:12.595Z,26.35
2017-12-19T23:08:38.805Z,25.75
2017-12-19T23:11:05.051Z,25.73
2017-12-19T23:13:31.289Z,26.00
2017-12-19T23:15:57.534Z,20.67
2017-12-19T23:18:23.769Z,20.85
2017-12-19T23:20:49.974Z,23.35
2017-12-19T23:23:16.246Z,25.90
2017-12-19T23:25:42.464Z,22.10
2017-12-19T23:28:09.470Z,18.80
2017-12-19T23:30:35.755Z,19.23
2017-12-19T23:33:01.991Z,19.45
2017-12-19T23:35:28.207Z,19.90
2017-12-19T23:37:54.431Z,20.75
2017-12-19T23:40:20.651Z,21.33
2017-12-19T23:42:47.245Z,20.10
2017-12-19T23:45:13.491Z,22.37
2017-12-19T23:47:39.709Z,18.95
2017-12-19T23:50:05.937Z,21.05
2017-12-19T23:52:32.155Z,20.80
2017-12-19T23:54:58.362Z,21.67
2017-12-19T23:57:24.627Z,20.88
2017-12-19T23:59:50.860Z,22.37
